sensor_id;sensor_type;location;lat;lon;timestamp;P1;durP1;ratioP1;P2;durP2;ratioP2
6564;SDS011;3316;44.118;27.258;2023-10-13T00:00:28;5.50;;;2.60;;
6564;SDS011;3316;44.118;27.258;2023-10-13T00:03:05;5.00;;;2.80;;
6564;SDS011;3316;44.118;27.258;2023-10-13T00:05:31;7.23;;;3.43;;
6564;SDS011;3316;44.118;27.258;2023-10-13T00:08:01;12.03;;;3.03;;
6564;SDS011;3316;44.118;27.258;2023-10-13T00:10:28;11.93;;;2.80;;
6564;SDS011;3316;44.118;27.258;2023-10-13T00:12:56;2.77;;;2.40;;
6564;SDS011;3316;44.118;27.258;2023-10-13T00:15:51;3.67;;;2.57;;
6564;SDS011;3316;44.118;27.258;2023-10-13T00:18:26;8.37;;;2.77;;
6564;SDS011;3316;44.118;27.258;2023-10-13T00:20:58;7.80;;;2.63;;
6564;SDS011;3316;44.118;27.258;2023-10-13T00:23:24;6.40;;;2.77;;
6564;SDS011;3316;44.118;27.258;2023-10-13T00:25:52;5.40;;;2.50;;
6564;SDS011;3316;44.118;27.258;2023-10-13T00:28:27;7.17;;;2.33;;
6564;SDS011;3316;44.118;27.258;2023-10-13T00:31:14;4.47;;;2.30;;
6564;SDS011;3316;44.118;27.258;2023-10-13T00:33:39;3.60;;;2.40;;
6564;SDS011;3316;44.118;27.258;2023-10-13T00:36:10;4.37;;;2.57;;
6564;SDS011;3316;44.118;27.258;2023-10-13T00:38:42;2.07;;;1.83;;
6564;SDS011;3316;44.118;27.258;2023-10-13T00:41:07;4.70;;;2.53;;
6564;SDS011;3316;44.118;27.258;2023-10-13T00:43:47;4.77;;;2.50;;
6564;SDS011;3316;44.118;27.258;2023-10-13T00:46:38;4.13;;;2.07;;
6564;SDS011;3316;44.118;27.258;2023-10-13T00:49:04;4.50;;;2.60;;
6564;SDS011;3316;44.118;27.258;2023-10-13T00:51:33;6.10;;;2.27;;
6564;SDS011;3316;44.118;27.258;2023-10-13T00:54:06;3.47;;;2.20;;
6564;SDS011;3316;44.118;27.258;2023-10-13T00:56:39;5.97;;;2.40;;
6564;SDS011;3316;44.118;27.258;2023-10-13T00:59:16;6.93;;;2.53;;
6564;SDS011;3316;44.118;27.258;2023-10-13T01:01:42;6.30;;;2.47;;
6564;SDS011;3316;44.118;27.258;2023-10-13T01:04:09;7.77;;;2.60;;
6564;SDS011;3316;44.118;27.258;2023-10-13T01:06:37;6.60;;;2.50;;
6564;SDS011;3316;44.118;27.258;2023-10-13T01:09:05;4.83;;;2.50;;
6564;SDS011;3316;44.118;27.258;2023-10-13T01:11:47;5.30;;;2.37;;
6564;SDS011;3316;44.118;27.258;2023-10-13T01:14:17;9.63;;;2.87;;
6564;SDS011;3316;44.118;27.258;2023-10-13T01:16:48;9.73;;;2.50;;
6564;SDS011;3316;44.118;27.258;2023-10-13T01:19:17;5.37;;;2.50;;
6564;SDS011;3316;44.118;27.258;2023-10-13T01:21:47;5.27;;;2.50;;
6564;SDS011;3316;44.118;27.258;2023-10-13T01:24:13;5.80;;;2.67;;
6564;SDS011;3316;44.118;27.258;2023-10-13T01:26:43;4.77;;;2.67;;
6564;SDS011;3316;44.118;27.258;2023-10-13T01:29:09;4.03;;;2.23;;
6564;SDS011;3316;44.118;27.258;2023-10-13T01:31:42;3.67;;;2.77;;
6564;SDS011;3316;44.118;27.258;2023-10-13T01:34:20;9.10;;;2.70;;
6564;SDS011;3316;44.118;27.258;2023-10-13T01:36:49;5.20;;;2.40;;
6564;SDS011;3316;44.118;27.258;2023-10-13T01:39:19;6.60;;;2.60;;
6564;SDS011;3316;44.118;27.258;2023-10-13T01:41:46;4.17;;;2.63;;
6564;SDS011;3316;44.118;27.258;2023-10-13T01:44:20;6.83;;;2.77;;
6564;SDS011;3316;44.118;27.258;2023-10-13T01:46:56;7.77;;;2.87;;
6564;SDS011;3316;44.118;27.258;2023-10-13T01:49:24;7.17;;;2.73;;
6564;SDS011;3316;44.118;27.258;2023-10-13T01:51:50;6.33;;;2.77;;
6564;SDS011;3316;44.118;27.258;2023-10-13T01:54:16;7.47;;;2.83;;
6564;SDS011;3316;44.118;27.258;2023-10-13T01:56:41;4.23;;;2.20;;
6564;SDS011;3316;44.118;27.258;2023-10-13T01:59:10;7.73;;;2.87;;
6564;SDS011;3316;44.118;27.258;2023-10-13T02:01:36;4.80;;;2.70;;
6564;SDS011;3316;44.118;27.258;2023-10-13T02:04:03;9.03;;;3.13;;
6564;SDS011;3316;44.118;27.258;2023-10-13T02:06:29;5.03;;;2.63;;
6564;SDS011;3316;44.118;27.258;2023-10-13T02:09:02;5.00;;;2.43;;
6564;SDS011;3316;44.118;27.258;2023-10-13T02:12:03;7.10;;;2.80;;
6564;SDS011;3316;44.118;27.258;2023-10-13T02:14:29;4.73;;;2.90;;
6564;SDS011;3316;44.118;27.258;2023-10-13T02:16:58;8.27;;;3.70;;
6564;SDS011;3316;44.118;27.258;2023-10-13T02:19:39;9.67;;;4.20;;
6564;SDS011;3316;44.118;27.258;2023-10-13T02:22:08;5.10;;;2.60;;
6564;SDS011;3316;44.118;27.258;2023-10-13T02:24:35;4.90;;;2.63;;
6564;SDS011;3316;44.118;27.258;2023-10-13T02:27:05;5.70;;;2.97;;
6564;SDS011;3316;44.118;27.258;2023-10-13T02:29:38;7.93;;;3.40;;
6564;SDS011;3316;44.118;27.258;2023-10-13T02:32:07;6.03;;;2.50;;
6564;SDS011;3316;44.118;27.258;2023-10-13T02:34:44;7.27;;;2.87;;
6564;SDS011;3316;44.118;27.258;2023-10-13T02:37:12;10.67;;;3.07;;
6564;SDS011;3316;44.118;27.258;2023-10-13T02:39:38;5.97;;;3.37;;
6564;SDS011;3316;44.118;27.258;2023-10-13T02:42:09;7.77;;;3.97;;
6564;SDS011;3316;44.118;27.258;2023-10-13T02:44:49;7.77;;;3.27;;
6564;SDS011;3316;44.118;27.258;2023-10-13T02:47:16;10.10;;;3.80;;
6564;SDS011;3316;44.118;27.258;2023-10-13T02:49:43;10.33;;;3.30;;
6564;SDS011;3316;44.118;27.258;2023-10-13T02:52:11;13.23;;;5.87;;
6564;SDS011;3316;44.118;27.258;2023-10-13T02:54:37;9.57;;;3.93;;
6564;SDS011;3316;44.118;27.258;2023-10-13T02:57:12;5.10;;;3.20;;
6564;SDS011;3316;44.118;27.258;2023-10-13T02:59:40;10.03;;;3.37;;
6564;SDS011;3316;44.118;27.258;2023-10-13T03:02:11;6.50;;;3.20;;
6564;SDS011;3316;44.118;27.258;2023-10-13T03:04:55;7.57;;;3.43;;
6564;SDS011;3316;44.118;27.258;2023-10-13T03:07:27;9.87;;;3.90;;
6564;SDS011;3316;44.118;27.258;2023-10-13T03:09:57;8.70;;;3.30;;
6564;SDS011;3316;44.118;27.258;2023-10-13T03:12:25;7.43;;;3.50;;
6564;SDS011;3316;44.118;27.258;2023-10-13T03:14:51;11.03;;;3.10;;
6564;SDS011;3316;44.118;27.258;2023-10-13T03:17:36;10.60;;;3.80;;
6564;SDS011;3316;44.118;27.258;2023-10-13T03:20:06;8.63;;;3.50;;
6564;SDS011;3316;44.118;27.258;2023-10-13T03:22:36;6.80;;;3.47;;
6564;SDS011;3316;44.118;27.258;2023-10-13T03:25:01;8.77;;;3.40;;
6564;SDS011;3316;44.118;27.258;2023-10-13T03:27:31;9.03;;;3.80;;
6564;SDS011;3316;44.118;27.258;2023-10-13T03:30:27;7.80;;;3.83;;
6564;SDS011;3316;44.118;27.258;2023-10-13T03:33:07;12.47;;;3.50;;
6564;SDS011;3316;44.118;27.258;2023-10-13T03:35:50;10.23;;;3.57;;
6564;SDS011;3316;44.118;27.258;2023-10-13T03:38:19;7.87;;;3.80;;
6564;SDS011;3316;44.118;27.258;2023-10-13T03:40:46;9.73;;;3.33;;
6564;SDS011;3316;44.118;27.258;2023-10-13T03:43:24;9.50;;;3.87;;
6564;SDS011;3316;44.118;27.258;2023-10-13T03:45:50;5.40;;;3.33;;
6564;SDS011;3316;44.118;27.258;2023-10-13T03:48:26;8.13;;;3.80;;
6564;SDS011;3316;44.118;27.258;2023-10-13T03:50:52;8.63;;;3.47;;
6564;SDS011;3316;44.118;27.258;2023-10-13T03:53:36;12.30;;;4.50;;
6564;SDS011;3316;44.118;27.258;2023-10-13T03:56:17;5.27;;;3.17;;
6564;SDS011;3316;44.118;27.258;2023-10-13T03:59:05;7.73;;;3.47;;
6564;SDS011;3316;44.118;27.258;2023-10-13T04:01:32;8.33;;;3.30;;
6564;SDS011;3316;44.118;27.258;2023-10-13T04:04:10;10.33;;;3.70;;
6564;SDS011;3316;44.118;27.258;2023-10-13T04:06:56;8.47;;;4.10;;
6564;SDS011;3316;44.118;27.258;2023-10-13T04:09:30;9.67;;;3.20;;
6564;SDS011;3316;44.118;27.258;2023-10-13T04:11:59;12.97;;;4.80;;
6564;SDS011;3316;44.118;27.258;2023-10-13T04:17:16;8.30;;;3.70;;
6564;SDS011;3316;44.118;27.258;2023-10-13T04:19:49;8.33;;;3.47;;
6564;SDS011;3316;44.118;27.258;2023-10-13T04:22:37;9.63;;;3.40;;
6564;SDS011;3316;44.118;27.258;2023-10-13T04:25:12;9.73;;;3.67;;
6564;SDS011;3316;44.118;27.258;2023-10-13T04:27:56;10.43;;;3.70;;
6564;SDS011;3316;44.118;27.258;2023-10-13T04:30:58;9.87;;;3.93;;
6564;SDS011;3316;44.118;27.258;2023-10-13T04:33:28;13.93;;;3.97;;
6564;SDS011;3316;44.118;27.258;2023-10-13T04:36:13;7.50;;;3.03;;
6564;SDS011;3316;44.118;27.258;2023-10-13T04:38:44;12.60;;;3.97;;
6564;SDS011;3316;44.118;27.258;2023-10-13T04:41:30;10.97;;;4.00;;
6564;SDS011;3316;44.118;27.258;2023-10-13T04:44:15;45.77;;;20.87;;
6564;SDS011;3316;44.118;27.258;2023-10-13T04:47:00;38.80;;;13.03;;
6564;SDS011;3316;44.118;27.258;2023-10-13T04:49:26;74.03;;;28.17;;
6564;SDS011;3316;44.118;27.258;2023-10-13T04:52:07;30.63;;;13.30;;
6564;SDS011;3316;44.118;27.258;2023-10-13T04:54:33;10.27;;;4.73;;
6564;SDS011;3316;44.118;27.258;2023-10-13T04:57:19;12.53;;;4.63;;
6564;SDS011;3316;44.118;27.258;2023-10-13T04:59:59;19.40;;;7.53;;
6564;SDS011;3316;44.118;27.258;2023-10-13T05:02:34;11.53;;;5.63;;
6564;SDS011;3316;44.118;27.258;2023-10-13T05:05:01;11.77;;;4.93;;
6564;SDS011;3316;44.118;27.258;2023-10-13T05:08:07;17.23;;;7.07;;
6564;SDS011;3316;44.118;27.258;2023-10-13T05:10:51;15.00;;;6.47;;
6564;SDS011;3316;44.118;27.258;2023-10-13T05:13:35;28.85;;;11.27;;
6564;SDS011;3316;44.118;27.258;2023-10-13T05:16:19;15.18;;;7.07;;
6564;SDS011;3316;44.118;27.258;2023-10-13T05:19:03;46.92;;;22.80;;
6564;SDS011;3316;44.118;27.258;2023-10-13T05:21:55;12.95;;;6.80;;
6564;SDS011;3316;44.118;27.258;2023-10-13T05:24:38;10.32;;;4.72;;
6564;SDS011;3316;44.118;27.258;2023-10-13T05:27:22;10.13;;;5.38;;
6564;SDS011;3316;44.118;27.258;2023-10-13T05:30:07;15.15;;;5.97;;
6564;SDS011;3316;44.118;27.258;2023-10-13T05:32:51;15.90;;;6.68;;
6564;SDS011;3316;44.118;27.258;2023-10-13T05:35:35;12.55;;;6.00;;
6564;SDS011;3316;44.118;27.258;2023-10-13T05:38:19;12.00;;;6.75;;
6564;SDS011;3316;44.118;27.258;2023-10-13T05:41:04;13.15;;;4.63;;
6564;SDS011;3316;44.118;27.258;2023-10-13T05:43:49;11.35;;;4.70;;
6564;SDS011;3316;44.118;27.258;2023-10-13T05:46:33;10.77;;;4.93;;
6564;SDS011;3316;44.118;27.258;2023-10-13T05:49:08;10.38;;;6.93;;
6564;SDS011;3316;44.118;27.258;2023-10-13T05:51:51;12.82;;;5.28;;
6564;SDS011;3316;44.118;27.258;2023-10-13T05:54:17;12.45;;;5.50;;
6564;SDS011;3316;44.118;27.258;2023-10-13T05:56:43;65.65;;;27.92;;
6564;SDS011;3316;44.118;27.258;2023-10-13T05:59:28;26.15;;;11.73;;
6564;SDS011;3316;44.118;27.258;2023-10-13T06:02:17;30.63;;;15.27;;
6564;SDS011;3316;44.118;27.258;2023-10-13T06:05:05;33.67;;;12.80;;
6564;SDS011;3316;44.118;27.258;2023-10-13T06:07:51;21.52;;;12.25;;
6564;SDS011;3316;44.118;27.258;2023-10-13T06:10:35;11.68;;;6.40;;
6564;SDS011;3316;44.118;27.258;2023-10-13T06:13:20;16.42;;;10.48;;
6564;SDS011;3316;44.118;27.258;2023-10-13T06:16:07;8.98;;;5.20;;
6564;SDS011;3316;44.118;27.258;2023-10-13T06:18:52;17.70;;;7.53;;
6564;SDS011;3316;44.118;27.258;2023-10-13T06:21:36;19.50;;;8.13;;
6564;SDS011;3316;44.118;27.258;2023-10-13T06:24:21;21.50;;;10.88;;
6564;SDS011;3316;44.118;27.258;2023-10-13T06:27:05;13.13;;;5.10;;
6564;SDS011;3316;44.118;27.258;2023-10-13T06:29:49;23.92;;;9.90;;
6564;SDS011;3316;44.118;27.258;2023-10-13T06:32:14;16.63;;;6.22;;
6564;SDS011;3316;44.118;27.258;2023-10-13T06:34:41;15.38;;;6.18;;
6564;SDS011;3316;44.118;27.258;2023-10-13T06:37:13;19.90;;;12.25;;
6564;SDS011;3316;44.118;27.258;2023-10-13T06:40:10;22.25;;;11.50;;
6564;SDS011;3316;44.118;27.258;2023-10-13T06:42:58;38.00;;;27.60;;
6564;SDS011;3316;44.118;27.258;2023-10-13T06:45:37;27.08;;;16.73;;
6564;SDS011;3316;44.118;27.258;2023-10-13T06:48:07;28.13;;;17.00;;
6564;SDS011;3316;44.118;27.258;2023-10-13T06:50:36;31.83;;;15.27;;
6564;SDS011;3316;44.118;27.258;2023-10-13T06:53:06;54.28;;;18.55;;
6564;SDS011;3316;44.118;27.258;2023-10-13T06:55:32;43.25;;;21.88;;
6564;SDS011;3316;44.118;27.258;2023-10-13T06:58:05;29.38;;;13.65;;
6564;SDS011;3316;44.118;27.258;2023-10-13T07:00:38;19.67;;;8.18;;
6564;SDS011;3316;44.118;27.258;2023-10-13T07:03:06;19.88;;;5.85;;
6564;SDS011;3316;44.118;27.258;2023-10-13T07:05:38;10.40;;;5.30;;
6564;SDS011;3316;44.118;27.258;2023-10-13T07:08:06;14.00;;;7.68;;
6564;SDS011;3316;44.118;27.258;2023-10-13T07:10:34;16.85;;;9.27;;
6564;SDS011;3316;44.118;27.258;2023-10-13T07:13:13;15.55;;;6.50;;
6564;SDS011;3316;44.118;27.258;2023-10-13T07:15:39;11.38;;;5.38;;
6564;SDS011;3316;44.118;27.258;2023-10-13T07:18:10;14.38;;;6.53;;
6564;SDS011;3316;44.118;27.258;2023-10-13T07:20:41;7.75;;;4.70;;
6564;SDS011;3316;44.118;27.258;2023-10-13T07:23:13;12.82;;;4.57;;
6564;SDS011;3316;44.118;27.258;2023-10-13T07:25:53;11.90;;;4.60;;
6564;SDS011;3316;44.118;27.258;2023-10-13T07:28:20;14.50;;;6.47;;
6564;SDS011;3316;44.118;27.258;2023-10-13T07:30:46;33.60;;;7.30;;
6564;SDS011;3316;44.118;27.258;2023-10-13T07:33:18;8.98;;;5.43;;
6564;SDS011;3316;44.118;27.258;2023-10-13T07:35:58;13.68;;;4.22;;
6564;SDS011;3316;44.118;27.258;2023-10-13T07:38:26;13.38;;;4.30;;
6564;SDS011;3316;44.118;27.258;2023-10-13T07:40:56;8.07;;;4.47;;
6564;SDS011;3316;44.118;27.258;2023-10-13T07:43:25;14.43;;;4.75;;
6564;SDS011;3316;44.118;27.258;2023-10-13T07:45:52;11.05;;;5.90;;
6564;SDS011;3316;44.118;27.258;2023-10-13T07:48:23;18.77;;;9.05;;
6564;SDS011;3316;44.118;27.258;2023-10-13T07:53:57;14.52;;;6.95;;
6564;SDS011;3316;44.118;27.258;2023-10-13T07:56:22;24.85;;;8.18;;
6564;SDS011;3316;44.118;27.258;2023-10-13T07:58:48;19.25;;;9.55;;
6564;SDS011;3316;44.118;27.258;2023-10-13T08:01:25;9.85;;;5.13;;
6564;SDS011;3316;44.118;27.258;2023-10-13T08:03:51;7.25;;;4.10;;
6564;SDS011;3316;44.118;27.258;2023-10-13T08:06:36;13.43;;;4.30;;
6564;SDS011;3316;44.118;27.258;2023-10-13T08:09:02;10.25;;;5.22;;
6564;SDS011;3316;44.118;27.258;2023-10-13T08:11:53;11.60;;;5.07;;
6564;SDS011;3316;44.118;27.258;2023-10-13T08:14:19;12.20;;;4.43;;
6564;SDS011;3316;44.118;27.258;2023-10-13T08:17:08;9.18;;;4.80;;
6564;SDS011;3316;44.118;27.258;2023-10-13T08:19:37;14.02;;;6.18;;
6564;SDS011;3316;44.118;27.258;2023-10-13T08:22:07;18.42;;;6.15;;
6564;SDS011;3316;44.118;27.258;2023-10-13T08:24:48;10.98;;;5.70;;
6564;SDS011;3316;44.118;27.258;2023-10-13T08:27:16;15.13;;;6.85;;
6564;SDS011;3316;44.118;27.258;2023-10-13T08:30:14;16.85;;;7.30;;
6564;SDS011;3316;44.118;27.258;2023-10-13T08:32:54;19.13;;;10.30;;
6564;SDS011;3316;44.118;27.258;2023-10-13T08:35:21;19.67;;;8.52;;
6564;SDS011;3316;44.118;27.258;2023-10-13T08:37:59;24.45;;;12.98;;
6564;SDS011;3316;44.118;27.258;2023-10-13T08:40:29;64.15;;;27.42;;
6564;SDS011;3316;44.118;27.258;2023-10-13T08:43:13;21.88;;;11.60;;
6564;SDS011;3316;44.118;27.258;2023-10-13T08:45:42;18.60;;;10.20;;
6564;SDS011;3316;44.118;27.258;2023-10-13T08:48:09;25.42;;;12.43;;
6564;SDS011;3316;44.118;27.258;2023-10-13T08:50:42;32.17;;;15.77;;
6564;SDS011;3316;44.118;27.258;2023-10-13T08:53:24;37.17;;;19.13;;
6564;SDS011;3316;44.118;27.258;2023-10-13T08:56:09;25.52;;;12.40;;
6564;SDS011;3316;44.118;27.258;2023-10-13T08:58:39;29.67;;;15.32;;
6564;SDS011;3316;44.118;27.258;2023-10-13T09:01:31;26.38;;;15.27;;
6564;SDS011;3316;44.118;27.258;2023-10-13T09:04:16;53.28;;;28.77;;
6564;SDS011;3316;44.118;27.258;2023-10-13T09:06:53;54.97;;;26.95;;
6564;SDS011;3316;44.118;27.258;2023-10-13T09:09:32;22.10;;;11.07;;
6564;SDS011;3316;44.118;27.258;2023-10-13T09:14:58;19.70;;;11.70;;
6564;SDS011;3316;44.118;27.258;2023-10-13T09:17:49;16.27;;;9.80;;
6564;SDS011;3316;44.118;27.258;2023-10-13T09:20:38;20.13;;;9.77;;
6564;SDS011;3316;44.118;27.258;2023-10-13T09:23:07;17.58;;;10.45;;
6564;SDS011;3316;44.118;27.258;2023-10-13T09:25:38;22.02;;;10.05;;
6564;SDS011;3316;44.118;27.258;2023-10-13T09:28:23;17.38;;;10.07;;
6564;SDS011;3316;44.118;27.258;2023-10-13T09:30:52;20.20;;;9.50;;
6564;SDS011;3316;44.118;27.258;2023-10-13T09:33:25;14.85;;;8.38;;
6564;SDS011;3316;44.118;27.258;2023-10-13T09:36:01;17.63;;;8.50;;
6564;SDS011;3316;44.118;27.258;2023-10-13T09:38:29;20.30;;;8.77;;
6564;SDS011;3316;44.118;27.258;2023-10-13T09:41:04;19.20;;;10.07;;
6564;SDS011;3316;44.118;27.258;2023-10-13T09:43:48;15.60;;;7.80;;
6564;SDS011;3316;44.118;27.258;2023-10-13T09:46:20;23.23;;;8.27;;
6564;SDS011;3316;44.118;27.258;2023-10-13T09:48:48;12.80;;;7.68;;
6564;SDS011;3316;44.118;27.258;2023-10-13T09:51:29;16.10;;;9.30;;
6564;SDS011;3316;44.118;27.258;2023-10-13T09:54:07;34.85;;;15.57;;
6564;SDS011;3316;44.118;27.258;2023-10-13T09:56:58;37.28;;;15.68;;
6564;SDS011;3316;44.118;27.258;2023-10-13T09:59:50;31.95;;;14.35;;
6564;SDS011;3316;44.118;27.258;2023-10-13T10:02:18;23.08;;;8.88;;
6564;SDS011;3316;44.118;27.258;2023-10-13T10:04:51;21.90;;;13.00;;
6564;SDS011;3316;44.118;27.258;2023-10-13T10:07:24;29.60;;;12.90;;
6564;SDS011;3316;44.118;27.258;2023-10-13T10:09:57;20.25;;;9.05;;
6564;SDS011;3316;44.118;27.258;2023-10-13T10:18:01;23.00;;;12.68;;
6564;SDS011;3316;44.118;27.258;2023-10-13T10:20:31;21.52;;;11.90;;
6564;SDS011;3316;44.118;27.258;2023-10-13T10:23:09;26.25;;;11.05;;
6564;SDS011;3316;44.118;27.258;2023-10-13T10:25:47;25.13;;;12.02;;
6564;SDS011;3316;44.118;27.258;2023-10-13T10:28:13;21.40;;;10.75;;
6564;SDS011;3316;44.118;27.258;2023-10-13T10:30:41;31.88;;;13.10;;
6564;SDS011;3316;44.118;27.258;2023-10-13T10:33:09;34.38;;;12.27;;
6564;SDS011;3316;44.118;27.258;2023-10-13T10:35:47;15.65;;;9.77;;
6564;SDS011;3316;44.118;27.258;2023-10-13T10:38:24;17.85;;;7.93;;
6564;SDS011;3316;44.118;27.258;2023-10-13T10:43:23;18.05;;;8.27;;
6564;SDS011;3316;44.118;27.258;2023-10-13T10:45:51;19.13;;;9.02;;
6564;SDS011;3316;44.118;27.258;2023-10-13T10:48:18;28.90;;;10.00;;
6564;SDS011;3316;44.118;27.258;2023-10-13T10:50:54;19.65;;;9.00;;
6564;SDS011;3316;44.118;27.258;2023-10-13T10:53:20;21.88;;;7.15;;
6564;SDS011;3316;44.118;27.258;2023-10-13T10:56:10;18.90;;;7.90;;
6564;SDS011;3316;44.118;27.258;2023-10-13T10:58:49;12.52;;;6.63;;
6564;SDS011;3316;44.118;27.258;2023-10-13T11:01:20;15.98;;;7.05;;
6564;SDS011;3316;44.118;27.258;2023-10-13T11:03:56;24.17;;;10.60;;
6564;SDS011;3316;44.118;27.258;2023-10-13T11:06:25;27.83;;;11.20;;
6564;SDS011;3316;44.118;27.258;2023-10-13T11:11:44;14.30;;;7.50;;
6564;SDS011;3316;44.118;27.258;2023-10-13T11:14:19;23.63;;;8.95;;
6564;SDS011;3316;44.118;27.258;2023-10-13T11:16:58;18.38;;;7.57;;
6564;SDS011;3316;44.118;27.258;2023-10-13T11:19:39;18.48;;;8.13;;
6564;SDS011;3316;44.118;27.258;2023-10-13T11:22:15;15.43;;;7.18;;
6564;SDS011;3316;44.118;27.258;2023-10-13T11:24:57;19.23;;;7.40;;
6564;SDS011;3316;44.118;27.258;2023-10-13T11:27:28;26.60;;;7.93;;
6564;SDS011;3316;44.118;27.258;2023-10-13T11:30:12;22.45;;;8.00;;
6564;SDS011;3316;44.118;27.258;2023-10-13T11:32:40;19.50;;;7.20;;
6564;SDS011;3316;44.118;27.258;2023-10-13T11:35:10;16.60;;;7.20;;
6564;SDS011;3316;44.118;27.258;2023-10-13T11:37:54;16.23;;;6.70;;
6564;SDS011;3316;44.118;27.258;2023-10-13T11:40:31;17.08;;;6.63;;
6564;SDS011;3316;44.118;27.258;2023-10-13T11:43:09;14.50;;;7.13;;
6564;SDS011;3316;44.118;27.258;2023-10-13T11:45:42;14.55;;;7.57;;
6564;SDS011;3316;44.118;27.258;2023-10-13T11:48:38;12.90;;;6.75;;
6564;SDS011;3316;44.118;27.258;2023-10-13T11:51:07;15.43;;;6.63;;
6564;SDS011;3316;44.118;27.258;2023-10-13T11:53:34;15.52;;;6.05;;
6564;SDS011;3316;44.118;27.258;2023-10-13T11:56:01;19.30;;;6.28;;
6564;SDS011;3316;44.118;27.258;2023-10-13T11:58:33;13.88;;;5.95;;
6564;SDS011;3316;44.118;27.258;2023-10-13T12:00:59;29.27;;;8.13;;
6564;SDS011;3316;44.118;27.258;2023-10-13T12:06:25;18.73;;;5.82;;
6564;SDS011;3316;44.118;27.258;2023-10-13T12:09:09;33.92;;;6.93;;
6564;SDS011;3316;44.118;27.258;2023-10-13T12:11:41;30.98;;;6.68;;
6564;SDS011;3316;44.118;27.258;2023-10-13T12:14:14;21.15;;;6.10;;
6564;SDS011;3316;44.118;27.258;2023-10-13T12:16:46;19.75;;;6.50;;
6564;SDS011;3316;44.118;27.258;2023-10-13T12:19:19;33.72;;;7.28;;
6564;SDS011;3316;44.118;27.258;2023-10-13T12:21:48;21.40;;;5.97;;
6564;SDS011;3316;44.118;27.258;2023-10-13T12:24:23;23.33;;;7.07;;
6564;SDS011;3316;44.118;27.258;2023-10-13T12:27:01;24.50;;;6.20;;
6564;SDS011;3316;44.118;27.258;2023-10-13T12:29:27;18.55;;;6.38;;
6564;SDS011;3316;44.118;27.258;2023-10-13T12:31:56;35.70;;;6.60;;
6564;SDS011;3316;44.118;27.258;2023-10-13T12:34:37;20.38;;;5.43;;
6564;SDS011;3316;44.118;27.258;2023-10-13T12:37:32;17.08;;;7.00;;
6564;SDS011;3316;44.118;27.258;2023-10-13T12:40:07;21.77;;;5.88;;
6564;SDS011;3316;44.118;27.258;2023-10-13T12:42:52;27.33;;;6.15;;
6564;SDS011;3316;44.118;27.258;2023-10-13T12:45:40;21.58;;;6.80;;
6564;SDS011;3316;44.118;27.258;2023-10-13T12:48:28;21.13;;;5.88;;
6564;SDS011;3316;44.118;27.258;2023-10-13T12:51:12;22.85;;;6.10;;
6564;SDS011;3316;44.118;27.258;2023-10-13T12:53:56;26.92;;;6.53;;
6564;SDS011;3316;44.118;27.258;2023-10-13T12:56:45;17.77;;;5.22;;
6564;SDS011;3316;44.118;27.258;2023-10-13T12:59:11;21.33;;;6.07;;
6564;SDS011;3316;44.118;27.258;2023-10-13T13:01:39;20.17;;;6.80;;
6564;SDS011;3316;44.118;27.258;2023-10-13T13:04:08;14.77;;;5.30;;
6564;SDS011;3316;44.118;27.258;2023-10-13T13:06:45;23.70;;;5.60;;
6564;SDS011;3316;44.118;27.258;2023-10-13T13:09:11;25.88;;;6.28;;
6564;SDS011;3316;44.118;27.258;2023-10-13T13:11:37;30.20;;;6.82;;
6564;SDS011;3316;44.118;27.258;2023-10-13T13:14:08;19.23;;;8.77;;
6564;SDS011;3316;44.118;27.258;2023-10-13T13:16:34;32.67;;;8.30;;
6564;SDS011;3316;44.118;27.258;2023-10-13T13:19:00;20.27;;;6.22;;
6564;SDS011;3316;44.118;27.258;2023-10-13T13:21:35;28.77;;;7.85;;
6564;SDS011;3316;44.118;27.258;2023-10-13T13:24:01;25.13;;;6.38;;
6564;SDS011;3316;44.118;27.258;2023-10-13T13:26:29;20.25;;;5.78;;
6564;SDS011;3316;44.118;27.258;2023-10-13T13:28:56;22.65;;;6.10;;
6564;SDS011;3316;44.118;27.258;2023-10-13T13:31:21;35.10;;;7.50;;
6564;SDS011;3316;44.118;27.258;2023-10-13T13:33:51;31.20;;;8.93;;
6564;SDS011;3316;44.118;27.258;2023-10-13T13:36:18;68.78;;;12.75;;
6564;SDS011;3316;44.118;27.258;2023-10-13T13:38:44;42.25;;;11.07;;
6564;SDS011;3316;44.118;27.258;2023-10-13T13:41:14;41.58;;;11.23;;
6564;SDS011;3316;44.118;27.258;2023-10-13T13:46:15;28.08;;;6.97;;
6564;SDS011;3316;44.118;27.258;2023-10-13T13:48:44;25.35;;;7.82;;
6564;SDS011;3316;44.118;27.258;2023-10-13T13:51:13;25.23;;;7.15;;
6564;SDS011;3316;44.118;27.258;2023-10-13T13:53:45;23.95;;;6.78;;
6564;SDS011;3316;44.118;27.258;2023-10-13T13:56:12;20.73;;;6.65;;
6564;SDS011;3316;44.118;27.258;2023-10-13T13:58:44;19.73;;;6.18;;
6564;SDS011;3316;44.118;27.258;2023-10-13T14:01:10;34.72;;;6.85;;
6564;SDS011;3316;44.118;27.258;2023-10-13T14:03:46;17.85;;;6.47;;
6564;SDS011;3316;44.118;27.258;2023-10-13T14:06:16;16.88;;;6.65;;
6564;SDS011;3316;44.118;27.258;2023-10-13T14:08:50;21.83;;;6.82;;
6564;SDS011;3316;44.118;27.258;2023-10-13T14:11:20;15.52;;;6.22;;
6564;SDS011;3316;44.118;27.258;2023-10-13T14:16:46;34.58;;;8.57;;
6564;SDS011;3316;44.118;27.258;2023-10-13T14:19:15;25.80;;;7.13;;
6564;SDS011;3316;44.118;27.258;2023-10-13T14:21:53;73.70;;;21.63;;
6564;SDS011;3316;44.118;27.258;2023-10-13T14:24:19;48.72;;;14.30;;
6564;SDS011;3316;44.118;27.258;2023-10-13T14:26:59;45.90;;;9.63;;
6564;SDS011;3316;44.118;27.258;2023-10-13T14:29:35;35.47;;;9.27;;
6564;SDS011;3316;44.118;27.258;2023-10-13T14:32:06;27.50;;;8.30;;
6564;SDS011;3316;44.118;27.258;2023-10-13T14:34:39;21.30;;;7.40;;
6564;SDS011;3316;44.118;27.258;2023-10-13T14:37:06;25.90;;;7.63;;
6564;SDS011;3316;44.118;27.258;2023-10-13T14:39:32;26.35;;;8.43;;
6564;SDS011;3316;44.118;27.258;2023-10-13T14:42:00;30.63;;;8.13;;
6564;SDS011;3316;44.118;27.258;2023-10-13T14:44:30;30.95;;;12.43;;
6564;SDS011;3316;44.118;27.258;2023-10-13T14:46:57;27.77;;;11.85;;
6564;SDS011;3316;44.118;27.258;2023-10-13T14:49:22;26.63;;;11.10;;
6564;SDS011;3316;44.118;27.258;2023-10-13T14:51:48;42.97;;;13.20;;
6564;SDS011;3316;44.118;27.258;2023-10-13T14:54:14;51.58;;;11.00;;
6564;SDS011;3316;44.118;27.258;2023-10-13T14:56:40;55.17;;;12.35;;
6564;SDS011;3316;44.118;27.258;2023-10-13T14:59:09;26.10;;;8.98;;
6564;SDS011;3316;44.118;27.258;2023-10-13T15:01:42;22.77;;;8.63;;
6564;SDS011;3316;44.118;27.258;2023-10-13T15:04:08;21.90;;;7.90;;
6564;SDS011;3316;44.118;27.258;2023-10-13T15:06:34;28.42;;;9.07;;
6564;SDS011;3316;44.118;27.258;2023-10-13T15:09:00;27.10;;;9.48;;
6564;SDS011;3316;44.118;27.258;2023-10-13T15:11:26;30.92;;;11.32;;
6564;SDS011;3316;44.118;27.258;2023-10-13T15:13:55;29.77;;;10.00;;
6564;SDS011;3316;44.118;27.258;2023-10-13T15:16:24;42.15;;;11.35;;
6564;SDS011;3316;44.118;27.258;2023-10-13T15:18:52;37.10;;;8.77;;
6564;SDS011;3316;44.118;27.258;2023-10-13T15:21:21;35.17;;;9.18;;
6564;SDS011;3316;44.118;27.258;2023-10-13T15:23:48;28.08;;;9.90;;
6564;SDS011;3316;44.118;27.258;2023-10-13T15:26:16;33.05;;;10.55;;
6564;SDS011;3316;44.118;27.258;2023-10-13T15:28:42;23.17;;;8.35;;
6564;SDS011;3316;44.118;27.258;2023-10-13T15:31:14;26.60;;;7.43;;
6564;SDS011;3316;44.118;27.258;2023-10-13T15:34:12;27.38;;;8.45;;
6564;SDS011;3316;44.118;27.258;2023-10-13T15:36:41;23.45;;;7.32;;
6564;SDS011;3316;44.118;27.258;2023-10-13T15:39:08;29.05;;;9.18;;
6564;SDS011;3316;44.118;27.258;2023-10-13T15:41:35;29.70;;;9.65;;
6564;SDS011;3316;44.118;27.258;2023-10-13T15:44:04;28.52;;;7.80;;
6564;SDS011;3316;44.118;27.258;2023-10-13T15:46:34;34.22;;;8.55;;
6564;SDS011;3316;44.118;27.258;2023-10-13T15:49:00;25.77;;;8.90;;
6564;SDS011;3316;44.118;27.258;2023-10-13T15:51:27;35.08;;;9.25;;
6564;SDS011;3316;44.118;27.258;2023-10-13T15:53:53;22.65;;;8.68;;
6564;SDS011;3316;44.118;27.258;2023-10-13T15:56:18;28.25;;;8.75;;